Time;durP1;ratioP1;P1;durP2;ratioP2;P2;SDS_P1;SDS_P2;PMS_P1;PMS_P2;Temp;Humidity;BMP_temperature;BMP_pressure;BME280_temperature;BME280_humidity;BME280_pressure;Samples;Min_cycle;Max_cycle;Signal;HPM_P1;HPM_P2
2021/12/28 00:00:01;;;;;;;3.85;2.30;;;10.10;99.90;;;;;;6125913;23;20018;-83
2021/12/28 00:02:26;;;;;;;4.00;2.42;;;10.10;99.90;;;;;;6125152;23;20474;-83
2021/12/28 00:04:52;;;;;;;4.07;1.98;;;10.40;99.90;;;;;;6124739;23;20002;-83
2021/12/28 00:07:18;;;;;;;4.00;2.47;;;10.20;99.90;;;;;;6125007;23;20002;-83
2021/12/28 00:09:44;;;;;;;3.45;2.05;;;10.20;99.90;;;;;;6125075;23;20414;-83
2021/12/28 00:12:09;;;;;;;3.47;2.60;;;10.20;99.90;;;;;;6125315;23;20010;-82
2021/12/28 00:14:38;;;;;;;4.25;2.47;;;10.20;99.90;;;;;;6125724;23;20009;-81
2021/12/28 00:19:48;;;;;;;4.18;2.70;;;10.20;99.90;;;;;;6124457;23;20077;-83
2021/12/28 00:22:14;;;;;;;5.03;2.58;;;10.30;99.90;;;;;;6125220;23;20006;-83
2021/12/28 00:24:40;;;;;;;5.65;2.28;;;10.30;99.90;;;;;;6125308;23;20010;-81
2021/12/28 00:27:06;;;;;;;3.60;2.47;;;10.20;99.90;;;;;;6124759;23;20077;-81
2021/12/28 00:29:32;;;;;;;3.63;2.53;;;10.20;99.90;;;;;;6125365;23;20002;-82
2021/12/28 00:31:57;;;;;;;3.80;2.40;;;10.50;99.90;;;;;;6124650;23;20002;-81
2021/12/28 00:34:23;;;;;;;3.47;2.60;;;10.10;99.90;;;;;;6124634;23;20017;-81
2021/12/28 00:36:49;;;;;;;4.32;2.60;;;10.20;99.90;;;;;;6125502;23;20341;-82
2021/12/28 00:39:14;;;;;;;5.10;1.98;;;10.10;99.90;;;;;;6124698;23;20017;-81
2021/12/28 00:41:40;;;;;;;3.70;2.63;;;10.20;99.90;;;;;;6124704;23;20502;-82
2021/12/28 00:44:07;;;;;;;4.13;2.17;;;10.50;99.90;;;;;;6125272;23;20041;-82
2021/12/28 00:46:33;;;;;;;5.15;2.42;;;10.20;99.90;;;;;;6124797;23;20006;-81
2021/12/28 00:48:58;;;;;;;4.85;2.50;;;10.40;99.90;;;;;;6124195;23;20050;-82
2021/12/28 00:51:24;;;;;;;4.70;1.95;;;10.20;99.90;;;;;;6124989;23;20448;-82
2021/12/28 00:53:50;;;;;;;4.35;2.13;;;10.40;99.90;;;;;;6124643;23;20006;-82
2021/12/28 00:56:15;;;;;;;3.88;2.35;;;9.70;1.00;;;;;;6124596;23;20002;-81
2021/12/28 00:58:41;;;;;;;2.63;1.85;;;9.00;99.90;;;;;;6124865;23;20066;-81
2021/12/28 01:01:07;;;;;;;5.22;3.08;;;8.90;99.90;;;;;;6124698;23;20020;-81
2021/12/28 01:03:34;;;;;;;7.05;3.10;;;8.70;99.90;;;;;;6124263;23;20002;-82
2021/12/28 01:06:02;;;;;;;6.88;2.70;;;8.70;99.90;;;;;;6124888;23;20014;-81
2021/12/28 01:08:28;;;;;;;6.05;3.10;;;8.80;99.90;;;;;;6124617;23;20438;-82
2021/12/28 01:10:55;;;;;;;6.18;3.53;;;9.30;99.90;;;;;;6098835;23;20116;-82
2021/12/28 01:13:22;;;;;;;7.88;2.97;;;9.30;99.90;;;;;;6125383;23;20002;-81
2021/12/28 01:15:48;;;;;;;7.65;3.33;;;9.30;99.90;;;;;;6124592;23;20010;-80
2021/12/28 01:18:14;;;;;;;7.63;3.92;;;9.30;99.90;;;;;;6124239;23;20065;-80
2021/12/28 01:20:42;;;;;;;4.35;2.70;;;9.10;99.90;;;;;;6124990;23;20018;-80
2021/12/28 01:23:08;;;;;;;4.68;2.92;;;9.10;99.90;;;;;;6124372;23;19998;-81
2021/12/28 01:25:34;;;;;;;15.48;3.22;;;9.10;99.90;;;;;;6124319;23;20417;-81
2021/12/28 01:28:01;;;;;;;9.38;3.10;;;9.10;99.90;;;;;;6124272;23;19998;-81
2021/12/28 01:30:28;;;;;;;8.88;3.10;;;9.10;99.90;;;;;;6124900;23;20138;-81
2021/12/28 01:32:57;;;;;;;4.35;1.70;;;9.10;99.90;;;;;;6124450;23;20009;-81
2021/12/28 01:35:22;;;;;;;4.20;2.00;;;9.00;99.90;;;;;;6124162;23;19998;-81
2021/12/28 01:37:49;;;;;;;5.93;2.75;;;9.00;99.90;;;;;;6124332;23;20076;-81
2021/12/28 01:40:19;;;;;;;2.72;2.03;;;9.10;99.90;;;;;;6123612;23;20062;-81
2021/12/28 01:42:55;;;;;;;4.72;2.53;;;9.10;99.90;;;;;;6124903;23;20002;-81
2021/12/28 01:45:32;;;;;;;4.85;2.30;;;9.20;99.90;;;;;;6124451;23;20013;-81
2021/12/28 01:47:57;;;;;;;6.40;2.80;;;9.20;99.90;;;;;;6124332;23;20006;-81
2021/12/28 01:50:23;;;;;;;5.80;2.58;;;9.20;99.90;;;;;;6124414;23;20527;-81
2021/12/28 01:52:49;;;;;;;5.70;2.70;;;9.30;99.90;;;;;;6124371;23;20013;-81
2021/12/28 01:55:14;;;;;;;8.60;3.03;;;9.30;99.90;;;;;;6124525;23;20006;-81
2021/12/28 01:57:40;;;;;;;8.13;3.17;;;9.20;99.90;;;;;;6124661;23;20088;-81
2021/12/28 02:00:07;;;;;;;5.53;2.92;;;9.30;99.90;;;;;;6124559;23;20014;-81
2021/12/28 02:02:33;;;;;;;4.40;2.80;;;9.30;99.90;;;;;;6123410;23;20318;-81
2021/12/28 02:04:58;;;;;;;5.20;2.88;;;9.20;99.90;;;;;;6124720;23;20057;-81
2021/12/28 02:07:24;;;;;;;8.43;3.17;;;9.20;99.90;;;;;;6123838;23;20010;-81
2021/12/28 02:09:49;;;;;;;5.57;3.42;;;9.20;99.90;;;;;;6124086;23;20310;-81
2021/12/28 02:12:15;;;;;;;8.45;3.00;;;9.20;99.90;;;;;;6124206;23;20002;-80
2021/12/28 02:14:44;;;;;;;6.30;3.15;;;9.20;99.90;;;;;;6123884;23;20021;-81
2021/12/28 02:17:10;;;;;;;8.23;2.92;;;9.20;99.90;;;;;;6125907;23;20009;-81
2021/12/28 02:19:36;;;;;;;6.47;2.50;;;9.30;99.90;;;;;;6126344;23;20021;-81
2021/12/28 02:22:02;;;;;;;5.88;2.75;;;9.40;99.90;;;;;;6125449;23;20094;-81
2021/12/28 02:24:28;;;;;;;4.30;2.60;;;9.40;99.90;;;;;;6126556;23;20448;-81
2021/12/28 02:26:54;;;;;;;7.90;3.00;;;9.40;99.90;;;;;;6126005;23;19998;-81
2021/12/28 02:29:19;;;;;;;3.65;2.35;;;9.40;99.90;;;;;;6125869;23;20428;-81
2021/12/28 02:31:46;;;;;;;4.80;2.30;;;9.40;99.90;;;;;;6126412;23;20002;-81
2021/12/28 02:34:12;;;;;;;6.38;2.30;;;9.40;99.90;;;;;;6125989;23;20002;-81
2021/12/28 02:36:38;;;;;;;4.22;2.00;;;9.40;99.90;;;;;;6125829;23;20057;-81
2021/12/28 02:39:03;;;;;;;5.47;1.80;;;9.40;99.90;;;;;;6126496;23;20082;-81
2021/12/28 02:41:29;;;;;;;5.50;2.47;;;9.50;99.90;;;;;;6126889;23;20373;-81
2021/12/28 02:44:00;;;;;;;5.80;1.95;;;9.50;99.90;;;;;;6125858;23;19998;-81
2021/12/28 02:46:25;;;;;;;3.42;1.67;;;9.50;99.90;;;;;;6125829;23;20014;-81
2021/12/28 02:48:51;;;;;;;5.25;2.03;;;9.50;99.90;;;;;;6125947;23;20433;-81
2021/12/28 02:51:17;;;;;;;5.97;1.92;;;9.50;99.90;;;;;;6125719;23;20070;-81
2021/12/28 02:53:44;;;;;;;6.90;2.38;;;9.50;99.90;;;;;;6126504;23;20521;-81
2021/12/28 02:56:11;;;;;;;5.15;1.70;;;9.50;99.90;;;;;;6126107;23;20082;-81
2021/12/28 02:58:39;;;;;;;2.58;1.52;;;9.60;99.90;;;;;;6125444;23;20006;-81
2021/12/28 03:01:15;;;;;;;4.85;1.25;;;9.60;99.90;;;;;;6125824;23;20001;-81
2021/12/28 03:03:42;;;;;;;6.65;1.35;;;9.50;99.90;;;;;;6125797;23;20322;-81
2021/12/28 03:06:12;;;;;;;5.07;0.93;;;9.40;99.90;;;;;;6125976;23;20036;-81
2021/12/28 03:08:40;;;;;;;5.10;1.13;;;9.50;99.90;;;;;;6126029;23;19998;-81
2021/12/28 03:11:08;;;;;;;3.10;1.30;;;9.50;99.90;;;;;;6125716;23;20034;-81
2021/12/28 03:13:40;;;;;;;2.03;0.90;;;9.60;99.90;;;;;;6126904;23;20010;-81
2021/12/28 03:16:06;;;;;;;2.85;1.10;;;9.60;99.90;;;;;;6125347;23;20416;-81
2021/12/28 03:18:33;;;;;;;3.55;1.00;;;9.60;99.90;;;;;;6126200;23;20325;-81
2021/12/28 03:20:59;;;;;;;3.33;0.98;;;9.70;99.90;;;;;;6099378;23;20392;-81
2021/12/28 03:23:26;;;;;;;2.90;1.00;;;9.70;99.90;;;;;;6125392;23;20002;-81
2021/12/28 03:25:53;;;;;;;1.42;0.88;;;9.70;99.90;;;;;;6125939;23;20340;-81
2021/12/28 03:28:21;;;;;;;2.25;0.98;;;9.70;99.90;;;;;;6125630;23;20033;-82
2021/12/28 03:30:49;;;;;;;3.28;0.90;;;9.70;99.90;;;;;;6125305;23;20005;-81
2021/12/28 03:33:15;;;;;;;2.85;0.80;;;9.70;99.90;;;;;;6125961;23;20072;-82
2021/12/28 03:35:41;;;;;;;3.33;1.20;;;9.80;99.90;;;;;;6125591;23;20040;-82
2021/12/28 03:38:07;;;;;;;2.42;1.00;;;9.80;99.90;;;;;;6125295;23;20077;-82
2021/12/28 03:40:33;;;;;;;1.58;0.88;;;9.80;99.90;;;;;;6125258;23;20014;-82
2021/12/28 03:42:59;;;;;;;2.38;0.90;;;9.80;99.90;;;;;;6125777;23;20014;-82
2021/12/28 03:45:24;;;;;;;2.67;1.00;;;9.80;99.90;;;;;;6125124;23;20028;-81
2021/12/28 03:47:50;;;;;;;3.00;0.95;;;9.90;99.90;;;;;;6125898;23;20030;-85
2021/12/28 03:50:19;;;;;;;1.40;0.57;;;9.90;99.90;;;;;;6125636;23;20018;-85
2021/12/28 03:52:46;;;;;;;0.75;0.57;;;9.90;99.90;;;;;;6125090;23;20040;-82
2021/12/28 03:55:12;;;;;;;2.67;1.13;;;9.90;99.90;;;;;;6125606;23;19998;-82
2021/12/28 03:57:39;;;;;;;3.67;1.05;;;9.80;99.90;;;;;;6124875;23;20460;-82
2021/12/28 04:00:08;;;;;;;2.47;0.70;;;9.80;99.90;;;;;;6126333;23;20021;-82
2021/12/28 04:02:34;;;;;;;2.70;0.90;;;9.80;99.90;;;;;;6124711;23;20030;-82
2021/12/28 04:05:00;;;;;;;2.03;0.90;;;9.80;99.90;;;;;;6124921;23;20417;-82
2021/12/28 04:07:25;;;;;;;4.03;1.10;;;9.90;99.90;;;;;;6124987;23;19998;-82
2021/12/28 04:12:18;;;;;;;1.48;0.80;;;9.90;99.90;;;;;;6125262;23;20002;-82
2021/12/28 04:14:44;;;;;;;1.48;0.88;;;10.00;99.90;;;;;;6125451;23;20013;-82
2021/12/28 04:17:10;;;;;;;4.53;1.27;;;10.00;99.90;;;;;;6124962;23;20002;-82
2021/12/28 04:19:35;;;;;;;1.90;0.68;;;10.00;99.90;;;;;;6124980;23;20017;-82
2021/12/28 04:22:01;;;;;;;1.33;0.90;;;10.00;99.90;;;;;;6125355;23;20310;-82
2021/12/28 04:24:27;;;;;;;1.50;0.77;;;10.00;99.90;;;;;;6125191;23;20417;-82
2021/12/28 04:26:53;;;;;;;3.53;1.13;;;9.90;99.90;;;;;;6124668;23;20002;-82
2021/12/28 04:29:18;;;;;;;1.45;0.73;;;9.90;99.90;;;;;;6125408;23;19998;-82
2021/12/28 04:31:44;;;;;;;1.77;0.73;;;10.00;99.90;;;;;;6125160;23;20437;-82
2021/12/28 04:34:10;;;;;;;1.13;0.57;;;10.10;99.90;;;;;;6125068;23;20010;-82
2021/12/28 04:36:35;;;;;;;2.00;0.98;;;10.10;99.90;;;;;;6124781;23;20013;-82
2021/12/28 04:39:03;;;;;;;1.42;0.70;;;10.10;99.90;;;;;;6124833;23;20451;-82
2021/12/28 04:41:29;;;;;;;1.08;0.98;;;10.20;99.90;;;;;;6125580;23;20337;-82
2021/12/28 04:43:54;;;;;;;1.83;1.02;;;10.20;99.90;;;;;;6124680;23;20001;-82
2021/12/28 04:46:20;;;;;;;2.50;1.15;;;10.20;99.90;;;;;;6125001;23;20002;-81
2021/12/28 04:48:46;;;;;;;1.08;0.80;;;10.30;99.90;;;;;;6124511;23;20010;-82
2021/12/28 04:51:11;;;;;;;3.20;1.17;;;10.30;99.90;;;;;;6124707;23;20017;-82
2021/12/28 04:53:37;;;;;;;2.20;1.15;;;10.40;99.90;;;;;;6124733;23;20428;-82
2021/12/28 04:56:03;;;;;;;2.33;1.10;;;10.30;99.90;;;;;;6098528;23;20081;-81
2021/12/28 04:58:29;;;;;;;3.70;1.10;;;10.40;99.90;;;;;;6124505;23;20080;-81
2021/12/28 05:00:54;;;;;;;3.20;1.00;;;10.40;99.90;;;;;;6125260;23;20077;-82
2021/12/28 05:03:21;;;;;;;2.35;1.25;;;10.40;99.90;;;;;;6125290;23;20006;-82
2021/12/28 05:05:50;;;;;;;2.08;0.80;;;10.40;99.90;;;;;;6124774;23;20009;-82
2021/12/28 05:08:17;;;;;;;1.65;1.10;;;10.40;99.90;;;;;;6124620;23;20006;-81
2021/12/28 05:10:43;;;;;;;3.63;1.25;;;10.60;99.90;;;;;;6124812;23;20006;-82
2021/12/28 05:13:09;;;;;;;3.28;1.98;;;10.40;99.90;;;;;;6124580;23;20007;-82
2021/12/28 05:15:35;;;;;;;2.17;1.25;;;10.50;99.90;;;;;;6124445;23;20085;-81
2021/12/28 05:18:01;;;;;;;3.42;1.30;;;10.50;99.90;;;;;;6124845;23;20033;-82
2021/12/28 05:20:27;;;;;;;4.25;1.27;;;10.50;99.90;;;;;;6124697;23;20010;-82
2021/12/28 05:22:52;;;;;;;2.42;1.30;;;10.40;99.90;;;;;;6124355;23;20369;-82
2021/12/28 05:25:19;;;;;;;1.38;0.90;;;10.50;99.90;;;;;;6124685;23;20010;-81
2021/12/28 05:27:45;;;;;;;4.30;1.27;;;10.40;99.90;;;;;;6124385;23;20002;-81
2021/12/28 05:30:12;;;;;;;4.80;1.70;;;10.50;99.90;;;;;;6124935;23;20057;-82
2021/12/28 05:32:38;;;;;;;3.00;1.90;;;10.50;99.90;;;;;;6124629;23;20041;-81
2021/12/28 05:35:06;;;;;;;2.33;1.60;;;10.50;99.90;;;;;;6124170;23;20006;-82
2021/12/28 05:37:33;;;;;;;3.47;1.98;;;10.50;99.90;;;;;;6124038;23;20012;-82
2021/12/28 05:39:59;;;;;;;2.60;1.50;;;10.50;99.90;;;;;;6124271;23;20048;-82
2021/12/28 05:42:25;;;;;;;2.70;1.50;;;10.50;99.90;;;;;;6125037;23;20002;-82
2021/12/28 05:44:50;;;;;;;5.05;1.58;;;10.60;99.90;;;;;;6124396;23;20107;-82
2021/12/28 05:47:16;;;;;;;3.50;1.73;;;10.50;99.90;;;;;;6124796;23;20034;-81
2021/12/28 05:49:42;;;;;;;2.15;1.10;;;10.50;99.90;;;;;;6124033;23;20344;-84
2021/12/28 05:52:08;;;;;;;2.22;1.33;;;10.60;99.90;;;;;;6124105;23;20010;-84
2021/12/28 05:54:34;;;;;;;2.67;1.45;;;10.60;99.90;;;;;;6124315;23;20032;-85
2021/12/28 05:57:00;;;;;;;2.67;1.25;;;10.60;99.90;;;;;;6124761;23;20377;-84
2021/12/28 05:59:26;;;;;;;2.85;1.70;;;10.70;99.90;;;;;;6123742;23;20006;-84
2021/12/28 06:01:52;;;;;;;3.30;1.55;;;10.70;99.90;;;;;;6124219;23;20064;-84
2021/12/28 06:04:17;;;;;;;2.70;1.42;;;10.80;99.90;;;;;;6124391;23;20002;-84
2021/12/28 06:06:43;;;;;;;2.88;1.20;;;10.80;99.90;;;;;;6124145;23;20350;-85
2021/12/28 06:09:09;;;;;;;3.03;1.48;;;10.80;99.90;;;;;;6124547;23;20440;-82
2021/12/28 06:11:35;;;;;;;3.25;1.35;;;10.90;99.90;;;;;;6124720;23;20437;-82
2021/12/28 06:14:01;;;;;;;2.25;0.93;;;10.90;99.90;;;;;;6124023;23;20006;-82
2021/12/28 06:16:26;;;;;;;3.15;1.20;;;10.70;99.90;;;;;;6124095;23;20002;-82
2021/12/28 06:18:52;;;;;;;3.78;1.20;;;10.80;99.90;;;;;;6124159;23;20467;-81
2021/12/28 06:21:18;;;;;;;3.38;0.98;;;10.80;99.90;;;;;;6124541;23;20081;-82
2021/12/28 06:23:43;;;;;;;2.15;1.17;;;10.80;99.90;;;;;;6123664;23;20002;-81
2021/12/28 06:26:09;;;;;;;3.05;0.95;;;11.00;99.90;;;;;;6124548;23;20002;-82
2021/12/28 06:28:34;;;;;;;2.75;1.30;;;11.00;99.90;;;;;;6123877;23;20006;-82
2021/12/28 06:31:01;;;;;;;2.78;1.20;;;10.90;99.90;;;;;;6124429;23;20333;-82
2021/12/28 06:33:26;;;;;;;2.45;1.17;;;11.00;99.90;;;;;;6124501;23;20089;-82
2021/12/28 06:35:54;;;;;;;2.25;1.20;;;11.00;99.90;;;;;;6123943;23;20005;-82
2021/12/28 06:38:20;;;;;;;4.10;1.30;;;10.90;99.90;;;;;;6123918;23;20005;-82
2021/12/28 06:40:45;;;;;;;3.58;1.23;;;10.90;99.90;;;;;;6124140;23;20445;-82
2021/12/28 06:43:11;;;;;;;2.95;1.27;;;10.90;99.90;;;;;;6123764;23;20317;-83
2021/12/28 06:45:37;;;;;;;1.65;1.05;;;11.00;99.90;;;;;;6124273;23;20033;-81
2021/12/28 06:48:04;;;;;;;3.15;1.20;;;11.00;99.90;;;;;;6124981;23;20002;-83
2021/12/28 06:50:30;;;;;;;1.85;1.17;;;10.80;99.90;;;;;;6123662;23;20480;-84
2021/12/28 06:52:56;;;;;;;4.22;1.30;;;10.90;99.90;;;;;;6123753;23;20005;-83
2021/12/28 06:55:21;;;;;;;2.38;1.30;;;10.90;99.90;;;;;;6124556;23;20010;-82
2021/12/28 06:57:47;;;;;;;1.88;0.82;;;10.90;99.90;;;;;;6123658;23;20010;-83
2021/12/28 07:00:16;;;;;;;1.98;1.10;;;10.80;99.90;;;;;;6124664;23;20021;-82
2021/12/28 07:02:42;;;;;;;2.80;1.50;;;10.90;99.90;;;;;;6125161;23;20026;-82
2021/12/28 07:05:09;;;;;;;2.60;1.05;;;11.00;99.90;;;;;;6125631;23;20006;-87
2021/12/28 07:07:36;;;;;;;2.88;1.30;;;10.90;99.90;;;;;;6125827;23;20026;-87
2021/12/28 07:10:02;;;;;;;3.42;1.10;;;10.90;99.90;;;;;;6126396;23;20338;-85
2021/12/28 07:12:28;;;;;;;3.05;1.20;;;10.80;99.90;;;;;;6125451;23;20444;-84
2021/12/28 07:14:53;;;;;;;3.83;1.33;;;10.90;99.90;;;;;;6126030;23;20002;-85
2021/12/28 07:17:19;;;;;;;2.47;1.10;;;10.90;99.90;;;;;;6126021;23;20006;-84
2021/12/28 07:19:46;;;;;;;3.03;1.17;;;10.90;99.90;;;;;;6124871;23;20014;-85
2021/12/28 07:22:12;;;;;;;2.58;1.35;;;11.20;99.90;;;;;;6126393;23;20513;-84
2021/12/28 07:24:38;;;;;;;2.58;1.00;;;11.20;99.90;;;;;;6125447;23;20002;-84
2021/12/28 07:27:04;;;;;;;3.10;1.65;;;11.20;99.90;;;;;;6125536;23;20011;-84
2021/12/28 07:29:30;;;;;;;2.60;1.30;;;11.30;99.90;;;;;;6125559;23;20015;-84
2021/12/28 07:31:56;;;;;;;4.93;1.10;;;11.30;99.90;;;;;;6125428;23;20332;-85
2021/12/28 07:34:21;;;;;;;2.65;1.08;;;11.50;99.90;;;;;;6125364;23;20005;-84
2021/12/28 07:36:48;;;;;;;3.03;1.42;;;11.10;99.90;;;;;;6125677;23;20012;-84
2021/12/28 07:39:14;;;;;;;2.17;1.10;;;11.10;99.90;;;;;;6125601;23;20397;-84
2021/12/28 07:41:40;;;;;;;2.13;0.98;;;11.10;99.90;;;;;;6125312;23;20468;-84
2021/12/28 07:44:06;;;;;;;3.33;1.20;;;11.00;99.90;;;;;;6125106;23;20002;-84
2021/12/28 07:46:32;;;;;;;3.88;1.30;;;11.00;99.90;;;;;;6125775;23;20067;-84
2021/12/28 07:48:57;;;;;;;2.92;1.17;;;10.90;99.90;;;;;;6125305;23;20002;-84
2021/12/28 07:51:23;;;;;;;2.13;0.98;;;10.90;99.90;;;;;;6125369;23;20037;-84
2021/12/28 07:53:48;;;;;;;1.65;1.00;;;11.00;99.90;;;;;;6125505;23;20012;-84
2021/12/28 07:56:14;;;;;;;4.03;1.30;;;11.00;99.90;;;;;;6125230;23;20400;-84
2021/12/28 07:58:40;;;;;;;2.85;1.27;;;11.10;99.90;;;;;;6124917;23;19998;-84
2021/12/28 08:01:06;;;;;;;4.35;1.33;;;11.30;99.90;;;;;;6125675;23;20370;-84
2021/12/28 08:03:31;;;;;;;4.28;1.48;;;11.40;99.90;;;;;;6125393;23;20005;-84
2021/12/28 08:05:57;;;;;;;1.70;1.00;;;11.50;99.90;;;;;;6125207;23;20006;-85
2021/12/28 08:08:23;;;;;;;2.42;0.90;;;11.70;1.00;;;;;;6125188;23;20013;-85
2021/12/28 08:10:49;;;;;;;1.75;0.90;;;11.80;76.00;;;;;;6125808;23;20002;-85
2021/12/28 08:13:16;;;;;;;4.78;0.93;;;11.80;1.00;;;;;;6125055;23;20086;-84
2021/12/28 08:15:42;;;;;;;3.05;1.42;;;11.90;1.00;;;;;;6125505;23;20002;-87
2021/12/28 08:18:09;;;;;;;2.88;1.00;;;11.90;1.00;;;;;;6125204;23;20456;-85
2021/12/28 08:20:38;;;;;;;1.42;1.20;;;11.90;1.00;;;;;;6125494;23;20437;-87
2021/12/28 08:23:05;;;;;;;2.08;1.15;;;12.00;1.00;;;;;;6125142;23;20011;-84
2021/12/28 08:25:30;;;;;;;2.17;0.73;;;12.10;1.00;;;;;;6125502;23;20032;-85
2021/12/28 08:27:57;;;;;;;2.90;1.13;;;12.10;1.00;;;;;;6125027;23;20421;-85
2021/12/28 08:30:23;;;;;;;1.75;1.05;;;12.00;1.00;;;;;;6125307;23;20009;-85
2021/12/28 08:32:49;;;;;;;2.42;0.90;;;11.90;1.00;;;;;;6124907;23;20081;-85
2021/12/28 08:35:16;;;;;;;2.70;1.27;;;12.00;1.00;;;;;;6124759;23;20006;-85
2021/12/28 08:37:42;;;;;;;2.05;1.17;;;12.00;1.00;;;;;;6125562;23;20005;-85
2021/12/28 08:40:10;;;;;;;4.15;1.20;;;12.00;1.00;;;;;;6124338;23;20057;-84
2021/12/28 08:42:36;;;;;;;3.58;1.60;;;12.10;1.00;;;;;;6124450;23;19998;-85
2021/12/28 08:45:03;;;;;;;2.33;1.45;;;12.10;1.00;;;;;;6125699;23;20033;-84
2021/12/28 08:47:28;;;;;;;4.05;1.10;;;12.10;1.00;;;;;;6124724;23;19998;-84
2021/12/28 08:49:55;;;;;;;3.25;1.92;;;12.10;1.00;;;;;;6124242;23;20010;-85
2021/12/28 08:52:22;;;;;;;2.95;1.20;;;12.20;1.00;;;;;;6125570;23;20002;-84
2021/12/28 08:54:47;;;;;;;2.38;1.20;;;12.10;1.00;;;;;;6124371;23;20006;-84
2021/12/28 08:57:13;;;;;;;2.38;1.13;;;12.10;1.00;;;;;;6124702;23;20049;-84
2021/12/28 08:59:39;;;;;;;2.08;1.20;;;12.10;1.00;;;;;;6124452;23;20073;-85
2021/12/28 09:02:07;;;;;;;2.00;1.38;;;12.00;1.00;;;;;;6124163;23;20012;-84
2021/12/28 09:04:33;;;;;;;2.38;1.40;;;12.00;1.00;;;;;;6098995;23;20344;-85
2021/12/28 09:06:59;;;;;;;3.75;1.77;;;12.00;1.00;;;;;;6124648;23;20021;-84
2021/12/28 09:09:25;;;;;;;2.95;1.58;;;11.90;1.00;;;;;;6124182;23;20041;-85
2021/12/28 09:11:51;;;;;;;2.92;1.23;;;11.90;1.00;;;;;;6124557;23;20449;-84
2021/12/28 09:14:16;;;;;;;4.47;2.60;;;11.90;1.00;;;;;;6125337;23;20082;-85
2021/12/28 09:16:42;;;;;;;4.25;1.70;;;11.90;1.00;;;;;;6123601;23;20061;-85
2021/12/28 09:19:08;;;;;;;2.85;1.23;;;12.00;1.00;;;;;;6125038;23;20089;-84
2021/12/28 09:21:33;;;;;;;3.45;1.75;;;12.00;1.00;;;;;;6124557;23;20014;-84
2021/12/28 09:23:59;;;;;;;2.67;1.20;;;12.00;1.00;;;;;;6124256;23;20324;-85
2021/12/28 09:26:25;;;;;;;2.47;1.25;;;12.10;1.00;;;;;;6125352;23;20010;-84
2021/12/28 09:28:51;;;;;;;3.55;1.30;;;12.10;1.00;;;;;;6124391;23;20417;-84
2021/12/28 09:31:16;;;;;;;4.15;1.50;;;12.20;1.00;;;;;;6124039;23;20002;-84
2021/12/28 09:33:42;;;;;;;2.58;1.40;;;12.20;1.00;;;;;;6124392;23;20070;-84
2021/12/28 09:36:11;;;;;;;1.52;1.02;;;12.20;1.00;;;;;;6124556;23;20349;-84
2021/12/28 09:38:37;;;;;;;2.95;1.48;;;12.20;1.00;;;;;;6124536;23;20314;-84
2021/12/28 09:41:03;;;;;;;2.47;1.13;;;12.20;1.00;;;;;;6123687;23;20017;-86
2021/12/28 09:43:28;;;;;;;3.33;1.20;;;12.20;1.00;;;;;;6125035;23;20392;-84
2021/12/28 09:45:54;;;;;;;3.58;1.33;;;12.30;1.00;;;;;;6123624;23;20074;-84
2021/12/28 09:48:20;;;;;;;5.10;1.65;;;12.30;1.00;;;;;;6124490;23;20024;-84
2021/12/28 09:50:46;;;;;;;2.70;1.60;;;12.20;1.00;;;;;;6123986;23;20020;-84
2021/12/28 09:53:14;;;;;;;3.95;1.40;;;12.20;1.00;;;;;;6124080;23;20069;-84
2021/12/28 09:55:41;;;;;;;2.78;1.40;;;12.30;1.00;;;;;;6124305;23;20002;-84
2021/12/28 09:58:08;;;;;;;2.45;1.48;;;12.30;1.00;;;;;;6124288;23;20002;-83
2021/12/28 10:00:34;;;;;;;4.15;1.42;;;12.30;1.00;;;;;;6124269;23;20024;-84
2021/12/28 10:03:00;;;;;;;2.10;1.38;;;12.20;1.00;;;;;;6124359;23;20399;-84
2021/12/28 10:05:27;;;;;;;3.55;1.52;;;12.20;1.00;;;;;;6097998;23;20013;-84
2021/12/28 10:08:01;;;;;;;2.63;1.40;;;12.20;1.00;;;;;;6124103;23;20024;-84
2021/12/28 10:10:36;;;;;;;4.75;1.58;;;12.20;1.00;;;;;;6124092;23;20005;-84
2021/12/28 10:13:07;;;;;;;2.67;1.50;;;12.20;1.00;;;;;;6123990;23;20314;-84
2021/12/28 10:15:39;;;;;;;2.15;1.38;;;12.30;1.00;;;;;;6123768;23;20499;-84
2021/12/28 10:18:08;;;;;;;3.13;1.52;;;12.20;1.00;;;;;;6098288;23;20013;-84
2021/12/28 10:20:41;;;;;;;3.70;1.75;;;12.30;1.00;;;;;;6124234;23;20013;-83
2021/12/28 10:23:13;;;;;;;4.15;1.73;;;12.30;1.00;;;;;;6124056;23;20033;-84
2021/12/28 10:25:48;;;;;;;4.35;1.50;;;12.30;1.00;;;;;;6124336;23;20009;-84
2021/12/28 10:28:21;;;;;;;2.63;1.50;;;12.30;1.00;;;;;;6123671;23;19998;-85
2021/12/28 10:30:52;;;;;;;3.47;1.50;;;12.30;1.00;;;;;;6124053;23;19998;-84
2021/12/28 10:33:21;;;;;;;4.80;1.50;;;12.30;1.00;;;;;;6124627;23;20455;-84
2021/12/28 10:35:50;;;;;;;3.95;1.55;;;12.30;1.00;;;;;;6123819;23;20085;-84
2021/12/28 10:38:24;;;;;;;2.38;1.30;;;12.40;1.00;;;;;;6126312;23;20042;-84
2021/12/28 10:41:11;;;;;;;2.63;1.50;;;12.40;1.00;;;;;;6125821;23;20464;-84
2021/12/28 10:43:40;;;;;;;2.25;1.30;;;12.40;1.00;;;;;;6125672;23;19998;-84
2021/12/28 10:46:15;;;;;;;2.20;1.30;;;12.40;1.00;;;;;;6125706;23;20524;-84
2021/12/28 10:48:48;;;;;;;3.50;1.65;;;12.40;1.00;;;;;;6126272;23;20002;-85
2021/12/28 10:51:21;;;;;;;2.33;1.40;;;12.50;1.00;;;;;;6125680;23;20405;-85
2021/12/28 10:56:23;;;;;;;4.18;1.50;;;12.50;1.00;;;;;;6126477;23;20014;-84
2021/12/28 10:58:50;;;;;;;2.83;1.45;;;12.40;1.00;;;;;;6125527;23;20073;-85
2021/12/28 11:01:25;;;;;;;2.65;1.30;;;12.40;1.00;;;;;;6125931;23;20034;-84
2021/12/28 11:03:56;;;;;;;1.50;1.35;;;12.40;1.00;;;;;;6125795;23;20329;-85
2021/12/28 11:06:25;;;;;;;2.03;1.38;;;12.40;1.00;;;;;;6127340;23;20077;-84
2021/12/28 11:08:54;;;;;;;2.80;1.50;;;12.40;1.00;;;;;;6126200;23;20009;-85
2021/12/28 11:11:22;;;;;;;1.90;1.27;;;12.40;1.00;;;;;;6126140;23;20009;-84
2021/12/28 11:13:52;;;;;;;3.47;1.40;;;12.40;1.00;;;;;;6125669;23;20065;-84
2021/12/28 11:16:19;;;;;;;2.95;1.30;;;12.40;1.00;;;;;;6126482;23;20392;-84
2021/12/28 11:18:47;;;;;;;3.20;1.52;;;12.40;1.00;;;;;;6125376;23;20002;-84
2021/12/28 11:21:15;;;;;;;2.67;1.80;;;12.40;1.00;;;;;;6125518;23;20006;-84
2021/12/28 11:23:42;;;;;;;3.30;1.30;;;12.40;1.00;;;;;;6125731;23;20085;-85
2021/12/28 11:26:10;;;;;;;3.60;1.40;;;12.40;1.00;;;;;;6125336;23;20002;-84
2021/12/28 11:28:37;;;;;;;2.92;1.63;;;12.40;1.00;;;;;;6125737;23;20002;-84
2021/12/28 11:31:15;;;;;;;3.45;1.60;;;12.40;1.00;;;;;;6125961;23;20429;-84
2021/12/28 11:34:00;;;;;;;2.42;1.48;;;12.40;1.00;;;;;;6125058;23;20059;-84
2021/12/28 11:36:34;;;;;;;2.15;1.27;;;12.40;1.00;;;;;;6125467;23;20081;-85
2021/12/28 11:39:02;;;;;;;1.92;1.20;;;12.40;1.00;;;;;;6129754;23;20002;-84
2021/12/28 11:41:28;;;;;;;3.47;1.50;;;12.40;1.00;;;;;;6133225;23;20010;-83
2021/12/28 11:43:56;;;;;;;2.80;1.27;;;12.50;1.00;;;;;;6129873;23;20026;-88
2021/12/28 11:46:22;;;;;;;3.22;1.50;;;12.40;1.00;;;;;;6125940;23;20057;-88
2021/12/28 11:48:48;;;;;;;1.67;1.42;;;12.50;1.00;;;;;;6125218;23;20006;-86
2021/12/28 11:51:14;;;;;;;4.18;1.60;;;12.50;1.00;;;;;;6125475;23;20033;-82
2021/12/28 11:53:46;;;;;;;2.63;1.50;;;12.50;1.00;;;;;;6125224;23;20421;-87
2021/12/28 11:56:14;;;;;;;4.03;1.50;;;12.50;1.00;;;;;;6125495;23;20005;-88
2021/12/28 11:59:04;;;;;;;4.93;1.50;;;12.50;1.00;;;;;;6125493;23;20069;-87
2021/12/28 12:01:39;;;;;;;1.75;1.10;;;12.50;1.00;;;;;;6125640;23;20025;-86
2021/12/28 12:04:34;;;;;;;5.53;1.60;;;12.50;1.00;;;;;;6099037;23;20010;-82
2021/12/28 12:07:05;;;;;;;2.22;1.35;;;12.50;1.00;;;;;;6124987;23;20002;-86
2021/12/28 12:09:53;;;;;;;3.92;1.75;;;12.60;1.00;;;;;;6125103;23;20002;-85
2021/12/28 12:12:44;;;;;;;3.60;1.80;;;12.50;1.00;;;;;;6125347;23;20012;-84
2021/12/28 12:15:11;;;;;;;2.70;1.77;;;12.50;1.00;;;;;;6125788;23;20029;-84
2021/12/28 12:17:39;;;;;;;3.80;2.38;;;12.50;1.00;;;;;;6125485;23;20082;-85
2021/12/28 12:20:09;;;;;;;5.07;2.20;;;12.50;1.00;;;;;;6098771;23;20038;-85
2021/12/28 12:22:41;;;;;;;3.45;1.63;;;12.50;1.00;;;;;;6125141;23;20009;-91
2021/12/28 12:25:10;;;;;;;3.30;1.77;;;12.50;1.00;;;;;;6124759;23;20052;-85
2021/12/28 12:27:47;;;;;;;3.72;1.23;;;12.50;1.00;;;;;;6125269;23;20432;-85
2021/12/28 12:30:26;;;;;;;2.85;1.90;;;12.50;1.00;;;;;;6125243;23;20018;-85
2021/12/28 12:33:05;;;;;;;2.80;1.40;;;12.50;1.00;;;;;;6125518;23;20327;-85
2021/12/28 12:35:31;;;;;;;3.42;1.50;;;12.40;1.00;;;;;;6125247;23;20009;-84
2021/12/28 12:38:26;;;;;;;5.18;2.35;;;12.40;1.00;;;;;;6124601;23;20005;-85
2021/12/28 12:41:12;;;;;;;3.80;1.60;;;12.40;1.00;;;;;;6124405;23;20097;-85
2021/12/28 12:43:40;;;;;;;2.50;1.60;;;12.40;1.00;;;;;;6098765;23;20321;-85
2021/12/28 12:46:16;;;;;;;4.45;1.80;;;12.40;1.00;;;;;;6124929;23;20017;-85
2021/12/28 12:48:42;;;;;;;4.13;1.55;;;12.40;1.00;;;;;;6124602;23;20072;-85
2021/12/28 12:51:22;;;;;;;3.65;1.80;;;12.50;1.00;;;;;;6124773;23;20056;-85
2021/12/28 12:54:06;;;;;;;4.03;1.58;;;12.40;1.00;;;;;;6124698;23;20390;-87
2021/12/28 12:56:50;;;;;;;3.60;1.70;;;12.50;1.00;;;;;;6098557;23;20006;-85
2021/12/28 12:59:27;;;;;;;3.47;1.88;;;12.50;1.00;;;;;;6124584;23;20021;-84
2021/12/28 13:01:54;;;;;;;3.03;1.90;;;12.50;1.00;;;;;;6124419;23;20101;-85